Time;durP1;ratioP1;P1;durP2;ratioP2;P2;SDS_P1;SDS_P2;PMS_P1;PMS_P2;Temp;Humidity;BMP_temperature;BMP_pressure;BME280_temperature;BME280_humidity;BME280_pressure;Samples;Min_cycle;Max_cycle;Signal;HPM_P1;HPM_P2
2021/04/03 00:00:11;;;;;;;12.93;2.78;;;;;;;;;;10346455;28;20279;-64
2021/04/03 00:05:10;;;;;;;15.73;3.17;;;;;;;;;;10377458;28;20038;-62
2021/04/03 00:10:07;;;;;;;;;;;;;;;;;;10363848;28;20503;-65
2021/04/03 00:15:05;;;;;;;15.18;2.42;;;;;;;;;;10365860;28;19978;-63
2021/04/03 00:20:04;;;;;;;8.40;1.57;;;;;;;;;;10367448;28;20155;-63
2021/04/03 00:25:01;;;;;;;13.18;1.85;;;;;;;;;;10362572;28;20287;-63
2021/04/03 00:29:59;;;;;;;6.87;1.93;;;;;;;;;;10367714;28;20037;-63
2021/04/03 00:34:56;;;;;;;15.50;2.97;;;;;;;;;;10383732;28;20036;-64
2021/04/03 00:39:53;;;;;;;23.07;3.73;;;;;;;;;;10356705;28;20093;-65
2021/04/03 00:44:51;;;;;;;13.03;2.23;;;;;;;;;;10364542;28;20047;-63
2021/04/03 00:49:48;;;;;;;12.30;1.77;;;;;;;;;;10360881;28;20028;-63
2021/04/03 00:54:46;;;;;;;13.80;2.77;;;;;;;;;;10355358;28;20048;-62
2021/04/03 00:59:43;;;;;;;15.10;2.10;;;;;;;;;;10335826;28;20033;-63
2021/04/03 01:04:43;;;;;;;7.50;2.05;;;;;;;;;;10354879;28;20032;-62
2021/04/03 01:09:41;;;;;;;3.73;1.80;;;;;;;;;;10354529;28;20043;-62
2021/04/03 01:14:42;;;;;;;8.70;2.10;;;;;;;;;;10335700;28;20047;-63
2021/04/03 01:19:49;;;;;;;23.83;3.22;;;;;;;;;;10344673;28;20094;-62
2021/04/03 01:24:47;;;;;;;11.10;1.88;;;;;;;;;;10359306;28;20029;-62
2021/04/03 01:30:05;;;;;;;9.60;1.70;;;;;;;;;;10335908;28;20032;-65
2021/04/03 01:35:18;;;;;;;9.20;2.30;;;;;;;;;;10329024;28;20033;-63
2021/04/03 01:40:18;;;;;;;15.27;2.63;;;;;;;;;;10350201;28;20123;-62
2021/04/03 01:45:18;;;;;;;21.70;3.03;;;;;;;;;;10363385;28;20024;-63
2021/04/03 01:50:17;;;;;;;16.20;3.25;;;;;;;;;;10368146;28;20021;-62
2021/04/03 01:55:16;;;;;;;12.63;3.38;;;;;;;;;;10349266;28;20037;-61
2021/04/03 02:00:15;;;;;;;14.27;2.75;;;;;;;;;;10345421;28;20634;-61
2021/04/03 02:05:27;;;;;;;6.55;1.35;;;;;;;;;;10349476;28;20029;-63
2021/04/03 02:10:39;;;;;;;8.30;1.05;;;;;;;;;;10331799;28;20119;-65
2021/04/03 02:15:37;;;;;;;4.90;1.15;;;;;;;;;;10323569;28;20570;-63
2021/04/03 02:20:37;;;;;;;4.10;0.75;;;;;;;;;;10352157;28;20036;-62
2021/04/03 02:25:34;;;;;;;2.88;0.70;;;;;;;;;;10332489;28;20119;-62
2021/04/03 02:30:32;;;;;;;5.50;3.10;;;;;;;;;;10329335;28;20740;-63
2021/04/03 02:35:30;;;;;;;11.10;1.20;;;;;;;;;;10343789;28;20032;-63
2021/04/03 02:40:32;;;;;;;4.90;1.33;;;;;;;;;;10344155;28;20041;-63
2021/04/03 02:45:40;;;;;;;6.28;1.88;;;;;;;;;;10324213;28;20512;-63
2021/04/03 02:50:40;;;;;;;12.45;1.75;;;;;;;;;;10339630;28;20743;-62
2021/04/03 02:55:44;;;;;;;2.83;0.75;;;;;;;;;;10321689;28;20044;-65
2021/04/03 03:00:44;;;;;;;2.13;0.77;;;;;;;;;;10343533;28;20048;-63
2021/04/03 03:05:44;;;;;;;3.28;1.08;;;;;;;;;;10339274;28;20044;-63
2021/04/03 03:10:42;;;;;;;5.72;1.58;;;;;;;;;;10346994;28;20039;-62
2021/04/03 03:15:40;;;;;;;4.18;1.25;;;;;;;;;;10367320;28;20094;-61
2021/04/03 03:20:38;;;;;;;0.20;0.20;;;;;;;;;;10360812;28;20511;-63
2021/04/03 03:25:38;;;;;;;4.90;1.17;;;;;;;;;;10341144;28;20041;-62
2021/04/03 03:30:37;;;;;;;5.28;1.55;;;;;;;;;;10315240;28;20036;-64
2021/04/03 03:35:39;;;;;;;15.75;1.67;;;;;;;;;;10343476;28;20087;-63
2021/04/03 03:40:38;;;;;;;3.03;1.20;;;;;;;;;;10327054;28;20078;-63
2021/04/03 03:45:39;;;;;;;5.78;1.63;;;;;;;;;;10328580;28;20033;-63
2021/04/03 03:50:38;;;;;;;5.50;1.10;;;;;;;;;;10341829;28;20099;-64
2021/04/03 03:55:39;;;;;;;0.52;0.52;;;;;;;;;;10323154;28;684850;-62
2021/04/03 04:00:43;;;;;;;4.97;1.33;;;;;;;;;;10353663;28;20039;-63
2021/04/03 04:05:44;;;;;;;2.03;0.60;;;;;;;;;;10341276;28;20056;-62
2021/04/03 04:10:44;;;;;;;2.13;0.80;;;;;;;;;;10332533;28;20032;-62
2021/04/03 04:15:45;;;;;;;2.13;0.80;;;;;;;;;;10358581;28;20028;-62
2021/04/03 04:20:43;;;;;;;0.67;0.53;;;;;;;;;;10351659;28;20044;-62
2021/04/03 04:25:49;;;;;;;0.82;0.82;;;;;;;;;;10341762;28;20040;-62
2021/04/03 04:30:50;;;;;;;2.80;0.98;;;;;;;;;;10324283;28;20063;-61
2021/04/03 04:35:48;;;;;;;1.58;1.48;;;;;;;;;;10351665;28;20062;-62
2021/04/03 04:40:51;;;;;;;1.45;0.95;;;;;;;;;;10361485;28;20040;-63
2021/04/03 04:45:51;;;;;;;1.85;0.57;;;;;;;;;;10344934;28;20045;-61
2021/04/03 04:50:54;;;;;;;0.45;0.45;;;;;;;;;;10347950;28;20029;-62
2021/04/03 04:55:53;;;;;;;0.85;0.85;;;;;;;;;;10356605;28;20032;-61
2021/04/03 05:00:51;;;;;;;4.07;0.32;;;;;;;;;;10342681;28;20036;-63
2021/04/03 05:05:57;;;;;;;0.50;0.50;;;;;;;;;;10333282;28;21101;-63
2021/04/03 05:10:55;;;;;;;2.53;1.03;;;;;;;;;;10348080;28;20043;-63
2021/04/03 05:15:53;;;;;;;0.97;0.90;;;;;;;;;;10366470;28;20123;-64
2021/04/03 05:20:51;;;;;;;1.75;1.13;;;;;;;;;;10358694;28;20110;-61
2021/04/03 05:25:49;;;;;;;5.13;1.05;;;;;;;;;;10315108;28;20534;-63
2021/04/03 05:30:46;;;;;;;4.23;2.43;;;;;;;;;;10329134;28;20474;-60
2021/04/03 05:35:44;;;;;;;2.57;0.77;;;;;;;;;;10321088;28;20032;-66
2021/04/03 05:40:41;;;;;;;1.83;1.40;;;;;;;;;;10346863;28;20399;-63
2021/04/03 05:45:41;;;;;;;2.50;1.50;;;;;;;;;;10336565;28;20029;-61
2021/04/03 05:50:39;;;;;;;11.55;1.55;;;;;;;;;;10334619;28;20067;-63
2021/04/03 05:55:36;;;;;;;2.77;1.60;;;;;;;;;;10350744;28;20131;-62
2021/04/03 06:00:34;;;;;;;1.97;1.03;;;;;;;;;;10341676;28;20061;-61
2021/04/03 06:05:31;;;;;;;2.97;1.37;;;;;;;;;;10340316;28;20032;-65
2021/04/03 06:10:29;;;;;;;7.13;1.93;;;;;;;;;;10326815;28;20029;-62
2021/04/03 06:15:26;;;;;;;1.43;0.87;;;;;;;;;;10346260;28;20036;-61
2021/04/03 06:20:30;;;;;;;1.60;0.87;;;;;;;;;;10341826;28;20032;-62
2021/04/03 06:25:28;;;;;;;1.48;1.35;;;;;;;;;;10314624;28;20051;-66
2021/04/03 06:30:30;;;;;;;7.00;1.60;;;;;;;;;;10334474;28;20035;-63
2021/04/03 06:35:27;;;;;;;3.20;1.40;;;;;;;;;;10318528;28;20040;-63
2021/04/03 06:40:25;;;;;;;9.07;1.77;;;;;;;;;;10347499;28;20029;-63
2021/04/03 06:45:26;;;;;;;2.70;0.97;;;;;;;;;;10339020;28;21166;-63
2021/04/03 06:50:25;;;;;;;5.53;1.63;;;;;;;;;;10341545;28;20075;-63
2021/04/03 06:55:22;;;;;;;;;;;;;;;;;;10335380;28;20033;-63
2021/04/03 07:00:20;;;;;;;3.57;1.50;;;;;;;;;;10350679;28;19923;-62
2021/04/03 07:05:18;;;;;;;5.43;1.73;;;;;;;;;;10343100;28;20769;-65
2021/04/03 07:10:16;;;;;;;3.45;1.38;;;;;;;;;;10337366;28;20502;-62
2021/04/03 07:15:14;;;;;;;4.60;1.58;;;;;;;;;;10343127;28;20037;-64
2021/04/03 07:20:13;;;;;;;7.03;1.57;;;;;;;;;;10353647;28;20029;-63
2021/04/03 07:25:10;;;;;;;3.25;1.02;;;;;;;;;;10348624;28;20041;-63
2021/04/03 07:30:08;;;;;;;1.90;0.70;;;;;;;;;;10341202;28;20115;-62
2021/04/03 07:35:22;;;;;;;17.00;2.10;;;;;;;;;;10358708;28;20055;-63
2021/04/03 07:40:23;;;;;;;10.85;2.17;;;;;;;;;;10336257;28;20029;-64
2021/04/03 07:45:29;;;;;;;13.77;2.17;;;;;;;;;;10359353;28;20071;-62
2021/04/03 07:50:42;;;;;;;11.88;1.30;;;;;;;;;;10351814;28;20029;-63
2021/04/03 07:55:43;;;;;;;1.85;0.88;;;;;;;;;;10347731;28;20146;-64
2021/04/03 08:00:40;;;;;;;9.32;2.35;;;;;;;;;;10356192;28;20047;-64
2021/04/03 08:05:38;;;;;;;8.43;1.73;;;;;;;;;;10329505;28;20031;-63
2021/04/03 08:10:36;;;;;;;3.08;0.77;;;;;;;;;;10350761;28;20780;-62
2021/04/03 08:15:33;;;;;;;7.10;2.03;;;;;;;;;;10360287;28;20036;-63
2021/04/03 08:20:31;;;;;;;4.70;1.00;;;;;;;;;;10365969;28;20033;-62
2021/04/03 08:25:28;;;;;;;6.73;2.00;;;;;;;;;;10358711;28;20044;-63
2021/04/03 08:30:30;;;;;;;0.67;0.60;;;;;;;;;;10348574;28;20503;-63
2021/04/03 08:35:28;;;;;;;5.70;1.13;;;;;;;;;;10360720;28;20045;-64
2021/04/03 08:40:26;;;;;;;;;;;;;;;;;;10354642;28;20073;-63
2021/04/03 08:45:23;;;;;;;5.45;1.83;;;;;;;;;;10371510;28;19985;-62
2021/04/03 08:50:20;;;;;;;8.53;2.57;;;;;;;;;;10348715;28;20523;-63
2021/04/03 08:55:24;;;;;;;5.03;1.87;;;;;;;;;;10345212;28;20040;-62
2021/04/03 09:00:23;;;;;;;8.52;1.88;;;;;;;;;;10339965;28;20029;-64
2021/04/03 09:05:20;;;;;;;7.90;1.83;;;;;;;;;;10340282;28;20968;-63
2021/04/03 09:10:19;;;;;;;7.33;1.10;;;;;;;;;;10338854;28;20458;-62
2021/04/03 09:15:25;;;;;;;9.80;2.05;;;;;;;;;;10346314;28;20319;-61
2021/04/03 09:20:26;;;;;;;8.77;1.38;;;;;;;;;;10334697;28;20068;-64
2021/04/03 09:25:28;;;;;;;7.90;1.23;;;;;;;;;;10350212;28;20040;-62
2021/04/03 09:30:36;;;;;;;13.70;2.17;;;;;;;;;;10349687;28;20033;-62
2021/04/03 09:35:33;;;;;;;4.15;0.93;;;;;;;;;;10349477;28;20512;-62
2021/04/03 09:40:38;;;;;;;3.77;1.17;;;;;;;;;;10349228;28;20064;-62
2021/04/03 09:45:37;;;;;;;14.95;2.50;;;;;;;;;;10337429;28;20510;-63
2021/04/03 09:50:34;;;;;;;15.30;3.15;;;;;;;;;;10346005;28;20077;-62
2021/04/03 09:55:32;;;;;;;14.30;1.63;;;;;;;;;;10346617;28;20039;-63
2021/04/03 10:00:29;;;;;;;10.03;2.90;;;;;;;;;;10327492;28;20070;-63
2021/04/03 10:05:27;;;;;;;18.63;3.00;;;;;;;;;;10339192;28;20679;-62
2021/04/03 10:10:24;;;;;;;16.27;2.90;;;;;;;;;;10346705;28;20032;-61
2021/04/03 10:15:22;;;;;;;13.40;3.17;;;;;;;;;;10349494;28;20037;-63
2021/04/03 10:20:20;;;;;;;11.30;2.22;;;;;;;;;;10351661;28;20044;-63
2021/04/03 10:25:17;;;;;;;20.33;2.83;;;;;;;;;;10346300;28;20033;-65
2021/04/03 10:30:15;;;;;;;9.53;1.57;;;;;;;;;;10322868;28;20910;-63
2021/04/03 10:35:12;;;;;;;10.48;1.58;;;;;;;;;;10340045;28;20410;-62
2021/04/03 10:40:10;;;;;;;13.17;1.67;;;;;;;;;;10352455;28;20082;-62
2021/04/03 10:45:08;;;;;;;7.63;2.10;;;;;;;;;;10342560;28;20037;-62
2021/04/03 10:50:05;;;;;;;10.50;2.53;;;;;;;;;;10357019;28;20119;-64
2021/04/03 10:55:03;;;;;;;23.65;4.18;;;;;;;;;;10334553;28;20037;-62
2021/04/03 11:00:00;;;;;;;11.27;2.83;;;;;;;;;;10353024;28;20043;-62
2021/04/03 11:04:58;;;;;;;17.37;2.47;;;;;;;;;;10331122;28;20036;-63
2021/04/03 11:09:55;;;;;;;6.30;1.60;;;;;;;;;;10338182;28;20029;-63
2021/04/03 11:14:53;;;;;;;6.33;2.30;;;;;;;;;;10350425;28;20048;-62
2021/04/03 11:19:50;;;;;;;9.27;2.33;;;;;;;;;;10330116;28;20127;-63
2021/04/03 11:24:47;;;;;;;18.33;3.10;;;;;;;;;;10344724;28;20496;-62
2021/04/03 11:29:45;;;;;;;8.93;2.37;;;;;;;;;;10340728;28;20021;-63
2021/04/03 11:34:42;;;;;;;10.27;2.87;;;;;;;;;;10321867;28;20048;-63
2021/04/03 11:39:40;;;;;;;11.37;1.60;;;;;;;;;;10344587;28;20028;-62
2021/04/03 11:44:37;;;;;;;10.70;1.63;;;;;;;;;;10355498;28;20032;-62
2021/04/03 11:49:35;;;;;;;12.30;4.17;;;;;;;;;;10339192;28;20101;-63
2021/04/03 11:54:32;;;;;;;11.47;2.47;;;;;;;;;;10310271;28;20020;-63
2021/04/03 11:59:29;;;;;;;6.97;1.30;;;;;;;;;;10355921;28;20545;-63
2021/04/03 12:04:27;;;;;;;12.73;2.47;;;;;;;;;;10328189;23;20119;-64
2021/04/03 12:09:24;;;;;;;15.33;3.40;;;;;;;;;;10247000;28;20041;-65
2021/04/03 12:14:22;;;;;;;7.17;2.27;;;;;;;;;;10266668;28;20503;-64
2021/04/03 12:19:19;;;;;;;12.17;2.47;;;;;;;;;;10265706;28;20037;-65
2021/04/03 12:24:16;;;;;;;12.30;3.13;;;;;;;;;;10285894;28;20033;-64
2021/04/03 12:29:14;;;;;;;9.10;2.30;;;;;;;;;;10281601;28;20530;-64
2021/04/03 12:34:11;;;;;;;18.40;4.23;;;;;;;;;;10257957;28;20368;-63
2021/04/03 12:39:09;;;;;;;10.57;1.93;;;;;;;;;;10290980;28;20033;-63
2021/04/03 12:44:06;;;;;;;13.70;3.23;;;;;;;;;;10278113;28;20049;-63
2021/04/03 12:49:03;;;;;;;23.83;4.67;;;;;;;;;;10276281;28;20036;-64
2021/04/03 12:54:01;;;;;;;16.93;1.77;;;;;;;;;;10264277;28;20153;-64
2021/04/03 12:58:58;;;;;;;10.53;2.37;;;;;;;;;;10246176;28;20052;-64
2021/04/03 13:03:56;;;;;;;15.80;2.67;;;;;;;;;;10249134;28;20478;-63
2021/04/03 13:08:55;;;;;;;11.67;2.50;;;;;;;;;;10286540;28;20088;-64
2021/04/03 13:13:52;;;;;;;12.80;2.60;;;;;;;;;;10297934;28;20105;-64
2021/04/03 13:18:50;;;;;;;6.77;2.30;;;;;;;;;;10278911;28;20128;-63
2021/04/03 13:23:47;;;;;;;18.33;2.57;;;;;;;;;;10274550;28;20120;-64
2021/04/03 13:28:45;;;;;;;16.93;2.80;;;;;;;;;;10271042;28;20046;-64
2021/04/03 13:33:42;;;;;;;15.63;3.87;;;;;;;;;;10266517;28;20033;-64
2021/04/03 13:38:39;;;;;;;15.00;2.77;;;;;;;;;;10272533;28;20033;-64
2021/04/03 13:43:37;;;;;;;20.93;3.40;;;;;;;;;;10273899;28;20037;-65
2021/04/03 13:48:34;;;;;;;8.90;2.07;;;;;;;;;;10274810;28;20515;-63
2021/04/03 13:53:32;;;;;;;16.57;2.63;;;;;;;;;;10278374;28;20169;-64
2021/04/03 13:58:29;;;;;;;11.90;2.60;;;;;;;;;;10275554;28;20359;-64
2021/04/03 14:03:26;;;;;;;7.10;1.47;;;;;;;;;;10253197;28;20550;-64
2021/04/03 14:08:24;;;;;;;10.47;2.43;;;;;;;;;;10243722;28;20169;-63
2021/04/03 14:13:21;;;;;;;8.13;2.90;;;;;;;;;;10264464;28;20510;-62
2021/04/03 14:18:19;;;;;;;12.80;2.43;;;;;;;;;;10266693;28;20026;-63
2021/04/03 14:23:16;;;;;;;3.33;1.70;;;;;;;;;;10267137;28;20057;-62
2021/04/03 14:28:14;;;;;;;12.63;3.17;;;;;;;;;;10268439;28;20191;-63
2021/04/03 14:33:11;;;;;;;7.07;1.90;;;;;;;;;;10253541;28;20415;-63
2021/04/03 14:38:09;;;;;;;11.30;2.20;;;;;;;;;;10255685;28;20037;-63
2021/04/03 14:43:07;;;;;;;10.73;2.97;;;;;;;;;;10234149;28;20072;-63
2021/04/03 14:48:05;;;;;;;13.35;2.03;;;;;;;;;;10258283;28;20044;-62
2021/04/03 14:53:03;;;;;;;8.13;1.70;;;;;;;;;;10250105;28;20041;-62
2021/04/03 14:58:00;;;;;;;13.70;2.13;;;;;;;;;;10259766;28;20076;-63
2021/04/03 15:02:58;;;;;;;7.40;1.83;;;;;;;;;;10260616;28;20029;-65
2021/04/03 15:07:55;;;;;;;8.83;1.33;;;;;;;;;;10267143;28;20061;-64
2021/04/03 15:12:52;;;;;;;10.53;1.83;;;;;;;;;;10275915;28;20037;-64
2021/04/03 15:17:50;;;;;;;11.80;2.23;;;;;;;;;;10254877;28;20406;-63
2021/04/03 15:22:48;;;;;;;5.93;1.43;;;;;;;;;;10262954;28;20073;-62
2021/04/03 15:27:45;;;;;;;17.55;3.20;;;;;;;;;;10257715;28;20060;-63
2021/04/03 15:32:43;;;;;;;14.13;2.30;;;;;;;;;;10223787;28;20041;-64
2021/04/03 15:37:40;;;;;;;9.63;1.43;;;;;;;;;;10258513;28;20498;-64
2021/04/03 15:42:37;;;;;;;11.27;1.97;;;;;;;;;;10261095;28;20391;-63
2021/04/03 15:47:35;;;;;;;9.07;1.57;;;;;;;;;;10238655;28;20375;-63
2021/04/03 15:52:32;;;;;;;13.97;2.50;;;;;;;;;;10247745;28;20042;-62
2021/04/03 15:57:30;;;;;;;8.10;1.93;;;;;;;;;;10267647;28;20076;-62
2021/04/03 16:02:27;;;;;;;16.03;2.07;;;;;;;;;;10256246;28;20061;-62
2021/04/03 16:07:24;;;;;;;18.17;3.53;;;;;;;;;;10259974;28;20045;-63
2021/04/03 16:12:22;;;;;;;18.33;3.50;;;;;;;;;;10256295;28;20043;-65
2021/04/03 16:17:19;;;;;;;8.17;1.83;;;;;;;;;;10274385;28;20034;-63
2021/04/03 16:22:18;;;;;;;7.17;2.00;;;;;;;;;;10285276;28;20049;-64
2021/04/03 16:27:15;;;;;;;;;;;;;;;;;;10256163;28;20096;-64
2021/04/03 16:32:13;;;;;;;10.63;2.33;;;;;;;;;;10273881;28;20001;-63
2021/04/03 16:37:10;;;;;;;8.63;2.50;;;;;;;;;;10276677;28;20311;-62
2021/04/03 16:42:07;;;;;;;7.90;1.90;;;;;;;;;;10260521;28;20044;-63
2021/04/03 16:47:05;;;;;;;20.87;2.80;;;;;;;;;;10258966;28;20052;-62
2021/04/03 16:52:03;;;;;;;8.38;1.77;;;;;;;;;;10259007;28;20037;-63
2021/04/03 16:57:00;;;;;;;12.03;3.13;;;;;;;;;;10279713;28;20171;-63
2021/04/03 17:01:58;;;;;;;17.27;4.13;;;;;;;;;;10261271;28;20580;-60
2021/04/03 17:06:55;;;;;;;7.60;2.20;;;;;;;;;;10267142;28;20419;-62
2021/04/03 17:11:53;;;;;;;10.00;4.07;;;;;;;;;;10269052;28;20049;-60
2021/04/03 17:16:50;;;;;;;12.13;3.03;;;;;;;;;;10264518;28;20519;-60
2021/04/03 17:21:48;;;;;;;4.27;1.37;;;;;;;;;;10267146;28;20065;-62
2021/04/03 17:26:45;;;;;;;7.53;1.87;;;;;;;;;;10266538;28;20873;-61
2021/04/03 17:31:42;;;;;;;5.90;2.47;;;;;;;;;;10261510;28;20034;-61
2021/04/03 17:36:40;;;;;;;4.43;1.20;;;;;;;;;;10261936;28;20118;-60
2021/04/03 17:41:37;;;;;;;13.07;2.43;;;;;;;;;;10281292;28;20099;-62
2021/04/03 17:46:35;;;;;;;9.93;1.83;;;;;;;;;;10272640;28;20507;-58
2021/04/03 17:51:32;;;;;;;6.00;1.37;;;;;;;;;;10280721;28;20037;-63
2021/04/03 17:56:30;;;;;;;6.77;1.60;;;;;;;;;;10276903;28;20132;-61
2021/04/03 18:01:27;;;;;;;8.15;2.00;;;;;;;;;;10270753;28;20033;-61
2021/04/03 18:06:25;;;;;;;7.03;1.90;;;;;;;;;;10283294;28;20053;-62
2021/04/03 18:11:22;;;;;;;1.47;1.13;;;;;;;;;;10274896;28;20042;-62
2021/04/03 18:16:20;;;;;;;1.27;0.50;;;;;;;;;;10264798;28;20037;-63
2021/04/03 18:21:17;;;;;;;5.53;1.63;;;;;;;;;;10280349;28;20124;-59
2021/04/03 18:26:16;;;;;;;9.23;2.20;;;;;;;;;;10258972;28;20530;-59
2021/04/03 18:31:13;;;;;;;5.23;2.97;;;;;;;;;;10272658;28;20352;-59
2021/04/03 18:36:11;;;;;;;2.23;1.80;;;;;;;;;;10257887;28;20059;-61
2021/04/03 18:41:11;;;;;;;7.20;2.17;;;;;;;;;;10264056;28;20083;-60
2021/04/03 18:46:09;;;;;;;2.50;1.20;;;;;;;;;;10267599;28;20030;-63
2021/04/03 18:51:07;;;;;;;7.55;1.27;;;;;;;;;;10270116;28;20407;-61
2021/04/03 18:56:05;;;;;;;5.05;1.25;;;;;;;;;;10263453;28;20060;-63
2021/04/03 19:01:03;;;;;;;6.33;2.20;;;;;;;;;;10238215;28;20034;-63
2021/04/03 19:06:00;;;;;;;1.47;1.23;;;;;;;;;;10274986;28;20103;-61
2021/04/03 19:10:57;;;;;;;16.00;2.23;;;;;;;;;;10275520;28;20203;-62
2021/04/03 19:15:55;;;;;;;5.23;1.63;;;;;;;;;;10267294;28;20155;-60
2021/04/03 19:20:52;;;;;;;4.23;1.60;;;;;;;;;;10277543;28;20091;-62
2021/04/03 19:25:50;;;;;;;6.20;1.17;;;;;;;;;;10271379;28;20077;-62
2021/04/03 19:30:47;;;;;;;3.63;2.17;;;;;;;;;;10256968;28;20495;-63
2021/04/03 19:35:45;;;;;;;8.70;2.47;;;;;;;;;;10264126;28;20431;-63
2021/04/03 19:40:42;;;;;;;11.47;3.07;;;;;;;;;;10262636;28;20029;-62
2021/04/03 19:45:40;;;;;;;10.90;3.10;;;;;;;;;;10278566;28;20108;-61
2021/04/03 19:50:37;;;;;;;10.73;2.67;;;;;;;;;;10261749;28;20457;-62
2021/04/03 19:55:35;;;;;;;3.53;1.70;;;;;;;;;;10279093;28;20439;-62
2021/04/03 20:00:32;;;;;;;5.13;2.27;;;;;;;;;;10284918;28;20088;-63
2021/04/03 20:05:30;;;;;;;9.93;4.47;;;;;;;;;;10290023;28;20058;-62
2021/04/03 20:10:27;;;;;;;16.83;2.87;;;;;;;;;;10287954;28;20029;-62
2021/04/03 20:15:24;;;;;;;4.87;1.80;;;;;;;;;;10280637;28;20068;-61
2021/04/03 20:20:22;;;;;;;7.63;1.97;;;;;;;;;;10253859;28;20064;-63
2021/04/03 20:25:19;;;;;;;8.43;2.90;;;;;;;;;;10289781;28;20521;-63
2021/04/03 20:30:20;;;;;;;21.70;2.77;;;;;;;;;;10287179;28;20041;-63
2021/04/03 20:35:17;;;;;;;8.65;2.67;;;;;;;;;;10274706;28;20469;-63
2021/04/03 20:40:15;;;;;;;5.33;1.90;;;;;;;;;;10269206;28;20033;-63
2021/04/03 20:45:13;;;;;;;16.40;2.23;;;;;;;;;;10260399;28;20094;-64
2021/04/03 20:50:12;;;;;;;9.48;1.48;;;;;;;;;;10263716;28;20045;-65
2021/04/03 20:55:10;;;;;;;11.90;2.90;;;;;;;;;;10264102;28;20844;-64
2021/04/03 21:00:09;;;;;;;6.17;1.67;;;;;;;;;;10273761;28;20103;-64
2021/04/03 21:05:07;;;;;;;7.35;2.28;;;;;;;;;;10284245;28;20448;-63
2021/04/03 21:10:05;;;;;;;3.03;0.95;;;;;;;;;;10269886;28;20040;-63
2021/04/03 21:15:04;;;;;;;7.07;1.98;;;;;;;;;;10276722;28;20041;-63
2021/04/03 21:20:05;;;;;;;12.88;2.47;;;;;;;;;;10275452;28;20033;-63
2021/04/03 21:25:03;;;;;;;5.45;1.65;;;;;;;;;;10288571;28;20569;-64
2021/04/03 21:30:00;;;;;;;10.98;0.95;;;;;;;;;;10268281;28;20096;-64
2021/04/03 21:34:58;;;;;;;20.10;2.37;;;;;;;;;;10270109;28;20098;-63
2021/04/03 21:39:55;;;;;;;2.53;1.30;;;;;;;;;;10257195;28;20659;-62
2021/04/03 21:44:53;;;;;;;16.70;1.27;;;;;;;;;;10270773;28;20017;-62
2021/04/03 21:49:50;;;;;;;21.27;4.27;;;;;;;;;;10261656;28;20056;-63
2021/04/03 21:54:47;;;;;;;2.00;1.10;;;;;;;;;;10270156;28;20029;-64
2021/04/03 21:59:45;;;;;;;2.77;0.87;;;;;;;;;;10251174;28;20033;-64
2021/04/03 22:04:42;;;;;;;5.10;1.03;;;;;;;;;;10268779;28;20025;-64
2021/04/03 22:09:40;;;;;;;12.47;2.10;;;;;;;;;;10257285;28;20026;-63
2021/04/03 22:14:37;;;;;;;2.83;0.97;;;;;;;;;;10291571;28;20029;-63
2021/04/03 22:19:35;;;;;;;10.73;1.63;;;;;;;;;;10289943;28;20032;-61
2021/04/03 22:24:32;;;;;;;7.13;2.43;;;;;;;;;;10268570;28;20040;-62
2021/04/03 22:29:29;;;;;;;4.30;1.40;;;;;;;;;;10278552;28;20068;-62
2021/04/03 22:34:27;;;;;;;3.90;2.17;;;;;;;;;;10258708;28;20101;-62
2021/04/03 22:39:24;;;;;;;4.17;1.53;;;;;;;;;;10284284;28;20030;-61
2021/04/03 22:44:23;;;;;;;11.40;2.17;;;;;;;;;;10271320;28;20041;-61
2021/04/03 22:49:20;;;;;;;;;;;;;;;;;;10276752;28;20128;-62
2021/04/03 22:54:17;;;;;;;2.85;0.63;;;;;;;;;;10288146;28;20547;-61
2021/04/03 22:59:15;;;;;;;4.60;0.93;;;;;;;;;;10270794;28;20037;-61
2021/04/03 23:04:12;;;;;;;7.13;1.70;;;;;;;;;;10266444;28;20064;-62
2021/04/03 23:09:09;;;;;;;6.50;1.00;;;;;;;;;;10292043;28;20060;-62
2021/04/03 23:14:07;;;;;;;2.63;0.90;;;;;;;;;;10277520;28;20045;-63
2021/04/03 23:19:04;;;;;;;10.43;1.80;;;;;;;;;;10265849;28;20554;-64
2021/04/03 23:24:02;;;;;;;5.57;1.10;;;;;;;;;;10254347;28;20403;-61
2021/04/03 23:29:00;;;;;;;1.67;0.98;;;;;;;;;;10270023;28;20034;-62
2021/04/03 23:33:57;;;;;;;12.03;1.63;;;;;;;;;;10266632;28;20416;-64
2021/04/03 23:38:55;;;;;;;4.50;1.57;;;;;;;;;;10234638;28;20579;-60
2021/04/03 23:43:52;;;;;;;13.00;1.47;;;;;;;;;;10267341;23;20064;-66
2021/04/03 23:48:50;;;;;;;2.63;0.87;;;;;;;;;;10224445;23;20486;-68
2021/04/03 23:53:47;;;;;;;4.53;0.83;;;;;;;;;;10263050;28;20033;-67
2021/04/03 23:58:44;;;;;;;2.67;1.13;;;;;;;;;;10269354;28;20030;-66
